sensor_id;sensor_type;location;lat;lon;timestamp;P1;durP1;ratioP1;P2;durP2;ratioP2
1839;SDS011;920;48.944;9.148;2022-09-21T00:01:42;4.90;;;4.40;;
1839;SDS011;920;48.944;9.148;2022-09-21T00:04:09;5.70;;;3.87;;
1839;SDS011;920;48.944;9.148;2022-09-21T00:06:37;4.93;;;4.17;;
1839;SDS011;920;48.944;9.148;2022-09-21T00:09:04;5.03;;;4.27;;
1839;SDS011;920;48.944;9.148;2022-09-21T00:11:32;7.03;;;5.27;;
1839;SDS011;920;48.944;9.148;2022-09-21T00:14:00;4.80;;;4.30;;
1839;SDS011;920;48.944;9.148;2022-09-21T00:16:28;4.97;;;4.40;;
1839;SDS011;920;48.944;9.148;2022-09-21T00:18:55;5.13;;;4.53;;
1839;SDS011;920;48.944;9.148;2022-09-21T00:21:22;7.87;;;4.30;;
1839;SDS011;920;48.944;9.148;2022-09-21T00:23:50;6.27;;;4.90;;
1839;SDS011;920;48.944;9.148;2022-09-21T00:26:19;5.90;;;4.23;;
1839;SDS011;920;48.944;9.148;2022-09-21T00:28:50;4.13;;;3.67;;
1839;SDS011;920;48.944;9.148;2022-09-21T00:31:18;4.90;;;3.97;;
1839;SDS011;920;48.944;9.148;2022-09-21T00:33:45;5.40;;;4.50;;
1839;SDS011;920;48.944;9.148;2022-09-21T00:36:12;5.67;;;4.50;;
1839;SDS011;920;48.944;9.148;2022-09-21T00:38:41;5.73;;;4.70;;
1839;SDS011;920;48.944;9.148;2022-09-21T00:41:10;5.40;;;4.73;;
1839;SDS011;920;48.944;9.148;2022-09-21T00:43:39;4.60;;;4.13;;
1839;SDS011;920;48.944;9.148;2022-09-21T00:46:12;4.53;;;3.70;;
1839;SDS011;920;48.944;9.148;2022-09-21T00:48:41;5.10;;;4.60;;
1839;SDS011;920;48.944;9.148;2022-09-21T00:51:07;8.53;;;4.67;;
1839;SDS011;920;48.944;9.148;2022-09-21T00:53:34;6.53;;;4.80;;
1839;SDS011;920;48.944;9.148;2022-09-21T00:56:02;4.60;;;3.93;;
1839;SDS011;920;48.944;9.148;2022-09-21T00:58:34;5.00;;;4.50;;
1839;SDS011;920;48.944;9.148;2022-09-21T01:01:04;5.40;;;4.53;;
1839;SDS011;920;48.944;9.148;2022-09-21T01:03:31;4.87;;;4.37;;
1839;SDS011;920;48.944;9.148;2022-09-21T01:05:58;5.57;;;4.07;;
1839;SDS011;920;48.944;9.148;2022-09-21T01:08:24;5.20;;;4.70;;
1839;SDS011;920;48.944;9.148;2022-09-21T01:11:00;9.63;;;4.40;;
1839;SDS011;920;48.944;9.148;2022-09-21T01:13:39;4.47;;;3.90;;
1839;SDS011;920;48.944;9.148;2022-09-21T01:16:10;5.87;;;4.40;;
1839;SDS011;920;48.944;9.148;2022-09-21T01:18:41;4.47;;;3.97;;
1839;SDS011;920;48.944;9.148;2022-09-21T01:21:17;4.20;;;3.77;;
1839;SDS011;920;48.944;9.148;2022-09-21T01:24:00;4.10;;;3.60;;
1839;SDS011;920;48.944;9.148;2022-09-21T01:26:47;4.17;;;3.70;;
1839;SDS011;920;48.944;9.148;2022-09-21T01:29:31;4.50;;;3.70;;
1839;SDS011;920;48.944;9.148;2022-09-21T01:32:00;4.90;;;4.27;;
1839;SDS011;920;48.944;9.148;2022-09-21T01:34:32;5.23;;;4.20;;
1839;SDS011;920;48.944;9.148;2022-09-21T01:37:02;5.03;;;3.87;;
1839;SDS011;920;48.944;9.148;2022-09-21T01:39:31;4.90;;;3.70;;
1839;SDS011;920;48.944;9.148;2022-09-21T01:42:00;5.77;;;4.27;;
1839;SDS011;920;48.944;9.148;2022-09-21T01:44:28;7.03;;;4.60;;
1839;SDS011;920;48.944;9.148;2022-09-21T01:46:58;5.90;;;4.73;;
1839;SDS011;920;48.944;9.148;2022-09-21T01:49:27;5.50;;;4.10;;
1839;SDS011;920;48.944;9.148;2022-09-21T01:51:56;5.60;;;4.10;;
1839;SDS011;920;48.944;9.148;2022-09-21T01:54:25;7.50;;;3.90;;
1839;SDS011;920;48.944;9.148;2022-09-21T01:56:57;4.93;;;4.20;;
1839;SDS011;920;48.944;9.148;2022-09-21T01:59:29;4.73;;;3.90;;
1839;SDS011;920;48.944;9.148;2022-09-21T02:02:02;4.80;;;3.70;;
1839;SDS011;920;48.944;9.148;2022-09-21T02:04:32;6.50;;;3.30;;
1839;SDS011;920;48.944;9.148;2022-09-21T02:07:00;5.00;;;3.87;;
1839;SDS011;920;48.944;9.148;2022-09-21T02:09:27;4.00;;;3.60;;
1839;SDS011;920;48.944;9.148;2022-09-21T02:11:53;4.53;;;3.80;;
1839;SDS011;920;48.944;9.148;2022-09-21T02:14:22;5.07;;;4.57;;
1839;SDS011;920;48.944;9.148;2022-09-21T02:16:52;6.13;;;4.00;;
1839;SDS011;920;48.944;9.148;2022-09-21T02:19:24;4.17;;;3.20;;
1839;SDS011;920;48.944;9.148;2022-09-21T02:21:57;4.20;;;3.10;;
1839;SDS011;920;48.944;9.148;2022-09-21T02:24:32;4.23;;;3.70;;
1839;SDS011;920;48.944;9.148;2022-09-21T02:27:09;5.00;;;3.90;;
1839;SDS011;920;48.944;9.148;2022-09-21T02:29:44;4.00;;;3.57;;
1839;SDS011;920;48.944;9.148;2022-09-21T02:32:17;4.30;;;3.87;;
1839;SDS011;920;48.944;9.148;2022-09-21T02:34:49;4.80;;;3.40;;
1839;SDS011;920;48.944;9.148;2022-09-21T02:37:22;5.00;;;3.40;;
1839;SDS011;920;48.944;9.148;2022-09-21T02:39:53;4.33;;;3.67;;
1839;SDS011;920;48.944;9.148;2022-09-21T02:42:25;4.47;;;3.60;;
1839;SDS011;920;48.944;9.148;2022-09-21T02:44:54;6.53;;;3.40;;
1839;SDS011;920;48.944;9.148;2022-09-21T02:47:27;5.70;;;4.50;;
1839;SDS011;920;48.944;9.148;2022-09-21T02:50:00;7.20;;;4.50;;
1839;SDS011;920;48.944;9.148;2022-09-21T02:52:29;4.53;;;3.80;;
1839;SDS011;920;48.944;9.148;2022-09-21T02:54:56;4.90;;;4.30;;
1839;SDS011;920;48.944;9.148;2022-09-21T02:57:23;6.10;;;4.30;;
1839;SDS011;920;48.944;9.148;2022-09-21T02:59:50;6.03;;;4.83;;
1839;SDS011;920;48.944;9.148;2022-09-21T03:02:17;5.80;;;4.87;;
1839;SDS011;920;48.944;9.148;2022-09-21T03:04:46;5.30;;;4.33;;
1839;SDS011;920;48.944;9.148;2022-09-21T03:07:13;4.27;;;3.83;;
1839;SDS011;920;48.944;9.148;2022-09-21T03:09:40;5.17;;;4.20;;
1839;SDS011;920;48.944;9.148;2022-09-21T03:12:07;5.30;;;4.40;;
1839;SDS011;920;48.944;9.148;2022-09-21T03:14:33;4.57;;;4.13;;
1839;SDS011;920;48.944;9.148;2022-09-21T03:17:00;4.57;;;3.87;;
1839;SDS011;920;48.944;9.148;2022-09-21T03:19:26;5.40;;;4.60;;
1839;SDS011;920;48.944;9.148;2022-09-21T03:21:55;5.33;;;3.60;;
1839;SDS011;920;48.944;9.148;2022-09-21T03:24:21;4.60;;;4.10;;
1839;SDS011;920;48.944;9.148;2022-09-21T03:27:03;5.43;;;4.03;;
1839;SDS011;920;48.944;9.148;2022-09-21T03:29:29;4.93;;;3.97;;
1839;SDS011;920;48.944;9.148;2022-09-21T03:31:57;6.80;;;4.00;;
1839;SDS011;920;48.944;9.148;2022-09-21T03:34:24;5.70;;;4.30;;
1839;SDS011;920;48.944;9.148;2022-09-21T03:36:50;5.30;;;4.23;;
1839;SDS011;920;48.944;9.148;2022-09-21T03:39:18;4.57;;;4.07;;
1839;SDS011;920;48.944;9.148;2022-09-21T03:41:45;5.20;;;4.30;;
1839;SDS011;920;48.944;9.148;2022-09-21T03:44:12;4.30;;;3.80;;
1839;SDS011;920;48.944;9.148;2022-09-21T03:46:41;6.57;;;4.30;;
1839;SDS011;920;48.944;9.148;2022-09-21T03:49:08;5.03;;;3.80;;
1839;SDS011;920;48.944;9.148;2022-09-21T03:51:35;4.67;;;3.73;;
1839;SDS011;920;48.944;9.148;2022-09-21T03:54:03;5.20;;;3.80;;
1839;SDS011;920;48.944;9.148;2022-09-21T03:56:31;6.00;;;4.60;;
1839;SDS011;920;48.944;9.148;2022-09-21T03:58:58;6.53;;;4.50;;
1839;SDS011;920;48.944;9.148;2022-09-21T04:01:24;4.30;;;3.67;;
1839;SDS011;920;48.944;9.148;2022-09-21T04:03:51;4.80;;;4.30;;
1839;SDS011;920;48.944;9.148;2022-09-21T04:06:17;4.40;;;3.30;;
1839;SDS011;920;48.944;9.148;2022-09-21T04:08:44;5.43;;;4.17;;
1839;SDS011;920;48.944;9.148;2022-09-21T04:11:11;4.13;;;3.60;;
1839;SDS011;920;48.944;9.148;2022-09-21T04:13:40;6.37;;;3.27;;
1839;SDS011;920;48.944;9.148;2022-09-21T04:16:07;5.47;;;3.60;;
1839;SDS011;920;48.944;9.148;2022-09-21T04:18:34;4.00;;;3.50;;
1839;SDS011;920;48.944;9.148;2022-09-21T04:21:02;5.83;;;3.67;;
1839;SDS011;920;48.944;9.148;2022-09-21T04:23:29;4.20;;;3.50;;
1839;SDS011;920;48.944;9.148;2022-09-21T04:25:56;4.03;;;3.10;;
1839;SDS011;920;48.944;9.148;2022-09-21T04:28:22;4.67;;;3.80;;
1839;SDS011;920;48.944;9.148;2022-09-21T04:30:52;4.37;;;3.83;;
1839;SDS011;920;48.944;9.148;2022-09-21T04:33:19;4.50;;;3.77;;
1839;SDS011;920;48.944;9.148;2022-09-21T04:35:50;5.13;;;3.30;;
1839;SDS011;920;48.944;9.148;2022-09-21T04:38:19;3.70;;;3.13;;
1839;SDS011;920;48.944;9.148;2022-09-21T04:40:52;3.30;;;3.00;;
1839;SDS011;920;48.944;9.148;2022-09-21T04:43:20;3.23;;;2.83;;
1839;SDS011;920;48.944;9.148;2022-09-21T04:45:47;7.93;;;3.53;;
1839;SDS011;920;48.944;9.148;2022-09-21T04:48:15;3.60;;;3.30;;
1839;SDS011;920;48.944;9.148;2022-09-21T04:50:42;3.97;;;3.30;;
1839;SDS011;920;48.944;9.148;2022-09-21T04:53:09;4.17;;;3.33;;
1839;SDS011;920;48.944;9.148;2022-09-21T04:55:35;4.53;;;3.60;;
1839;SDS011;920;48.944;9.148;2022-09-21T04:58:02;3.57;;;3.20;;
1839;SDS011;920;48.944;9.148;2022-09-21T05:00:28;4.00;;;3.60;;
1839;SDS011;920;48.944;9.148;2022-09-21T05:02:55;4.10;;;3.63;;
1839;SDS011;920;48.944;9.148;2022-09-21T05:05:23;6.10;;;4.43;;
1839;SDS011;920;48.944;9.148;2022-09-21T05:07:50;6.40;;;4.77;;
1839;SDS011;920;48.944;9.148;2022-09-21T05:10:17;7.80;;;4.60;;
1839;SDS011;920;48.944;9.148;2022-09-21T05:12:42;5.43;;;4.07;;
1839;SDS011;920;48.944;9.148;2022-09-21T05:15:09;4.47;;;3.93;;
1839;SDS011;920;48.944;9.148;2022-09-21T05:17:36;5.47;;;3.87;;
1839;SDS011;920;48.944;9.148;2022-09-21T05:20:03;4.70;;;3.43;;
1839;SDS011;920;48.944;9.148;2022-09-21T05:22:31;4.90;;;3.73;;
1839;SDS011;920;48.944;9.148;2022-09-21T05:24:58;3.73;;;3.20;;
1839;SDS011;920;48.944;9.148;2022-09-21T05:27:25;3.80;;;3.10;;
1839;SDS011;920;48.944;9.148;2022-09-21T05:29:51;3.90;;;3.37;;
1839;SDS011;920;48.944;9.148;2022-09-21T05:32:20;6.00;;;3.20;;
1839;SDS011;920;48.944;9.148;2022-09-21T05:34:52;4.30;;;3.53;;
1839;SDS011;920;48.944;9.148;2022-09-21T05:37:31;5.10;;;3.50;;
1839;SDS011;920;48.944;9.148;2022-09-21T05:40:07;4.03;;;3.50;;
1839;SDS011;920;48.944;9.148;2022-09-21T05:42:36;4.40;;;3.83;;
1839;SDS011;920;48.944;9.148;2022-09-21T05:45:04;5.37;;;3.93;;
1839;SDS011;920;48.944;9.148;2022-09-21T05:47:35;7.20;;;4.77;;
1839;SDS011;920;48.944;9.148;2022-09-21T05:50:05;5.97;;;4.77;;
1839;SDS011;920;48.944;9.148;2022-09-21T05:52:46;7.57;;;4.90;;
1839;SDS011;920;48.944;9.148;2022-09-21T05:55:18;6.90;;;5.20;;
1839;SDS011;920;48.944;9.148;2022-09-21T05:57:51;6.30;;;5.40;;
1839;SDS011;920;48.944;9.148;2022-09-21T06:00:22;5.00;;;4.03;;
1839;SDS011;920;48.944;9.148;2022-09-21T06:02:52;4.90;;;4.30;;
1839;SDS011;920;48.944;9.148;2022-09-21T06:05:29;5.63;;;5.03;;
1839;SDS011;920;48.944;9.148;2022-09-21T06:07:57;5.27;;;4.23;;
1839;SDS011;920;48.944;9.148;2022-09-21T06:10:23;6.90;;;4.63;;
1839;SDS011;920;48.944;9.148;2022-09-21T06:12:50;5.67;;;4.40;;
1839;SDS011;920;48.944;9.148;2022-09-21T06:15:17;7.17;;;4.80;;
1839;SDS011;920;48.944;9.148;2022-09-21T06:17:44;8.77;;;4.50;;
1839;SDS011;920;48.944;9.148;2022-09-21T06:20:10;6.20;;;4.80;;
1839;SDS011;920;48.944;9.148;2022-09-21T06:22:37;9.33;;;4.63;;
1839;SDS011;920;48.944;9.148;2022-09-21T06:25:06;9.43;;;5.20;;
1839;SDS011;920;48.944;9.148;2022-09-21T06:27:33;6.90;;;4.60;;
1839;SDS011;920;48.944;9.148;2022-09-21T06:29:59;8.40;;;5.13;;
1839;SDS011;920;48.944;9.148;2022-09-21T06:32:26;5.70;;;4.40;;
1839;SDS011;920;48.944;9.148;2022-09-21T06:34:52;5.93;;;4.40;;
1839;SDS011;920;48.944;9.148;2022-09-21T06:37:19;5.60;;;4.43;;
1839;SDS011;920;48.944;9.148;2022-09-21T06:39:46;7.07;;;5.43;;
1839;SDS011;920;48.944;9.148;2022-09-21T06:42:14;5.83;;;4.60;;
1839;SDS011;920;48.944;9.148;2022-09-21T06:44:40;6.30;;;4.87;;
1839;SDS011;920;48.944;9.148;2022-09-21T06:47:07;8.23;;;5.87;;
1839;SDS011;920;48.944;9.148;2022-09-21T06:49:33;7.60;;;5.80;;
1839;SDS011;920;48.944;9.148;2022-09-21T06:52:00;6.80;;;5.27;;
1839;SDS011;920;48.944;9.148;2022-09-21T06:54:28;6.80;;;5.60;;
1839;SDS011;920;48.944;9.148;2022-09-21T06:56:55;6.03;;;5.43;;
1839;SDS011;920;48.944;9.148;2022-09-21T06:59:23;6.77;;;5.67;;
1839;SDS011;920;48.944;9.148;2022-09-21T07:01:49;5.70;;;5.00;;
1839;SDS011;920;48.944;9.148;2022-09-21T07:04:16;5.90;;;5.30;;
1839;SDS011;920;48.944;9.148;2022-09-21T07:06:42;5.10;;;4.60;;
1839;SDS011;920;48.944;9.148;2022-09-21T07:09:09;5.97;;;5.03;;
1839;SDS011;920;48.944;9.148;2022-09-21T07:11:36;7.57;;;5.50;;
1839;SDS011;920;48.944;9.148;2022-09-21T07:14:05;6.07;;;5.47;;
1839;SDS011;920;48.944;9.148;2022-09-21T07:16:33;5.27;;;4.77;;
1839;SDS011;920;48.944;9.148;2022-09-21T07:19:00;6.53;;;4.83;;
1839;SDS011;920;48.944;9.148;2022-09-21T07:21:28;6.47;;;4.53;;
1839;SDS011;920;48.944;9.148;2022-09-21T07:23:57;7.97;;;5.07;;
1839;SDS011;920;48.944;9.148;2022-09-21T07:26:24;6.77;;;5.40;;
1839;SDS011;920;48.944;9.148;2022-09-21T07:28:51;6.50;;;5.20;;
1839;SDS011;920;48.944;9.148;2022-09-21T07:31:17;8.13;;;5.13;;
1839;SDS011;920;48.944;9.148;2022-09-21T07:33:45;5.40;;;4.90;;
1839;SDS011;920;48.944;9.148;2022-09-21T07:36:12;5.30;;;4.20;;
1839;SDS011;920;48.944;9.148;2022-09-21T07:38:39;5.97;;;5.00;;
1839;SDS011;920;48.944;9.148;2022-09-21T07:41:07;6.53;;;5.07;;
1839;SDS011;920;48.944;9.148;2022-09-21T07:43:34;7.43;;;5.13;;
1839;SDS011;920;48.944;9.148;2022-09-21T07:46:03;10.80;;;5.53;;
1839;SDS011;920;48.944;9.148;2022-09-21T07:48:30;11.20;;;5.60;;
1839;SDS011;920;48.944;9.148;2022-09-21T07:51:00;6.10;;;5.17;;
1839;SDS011;920;48.944;9.148;2022-09-21T07:53:30;7.93;;;5.60;;
1839;SDS011;920;48.944;9.148;2022-09-21T07:56:00;7.40;;;5.50;;
1839;SDS011;920;48.944;9.148;2022-09-21T07:58:27;7.10;;;5.97;;
1839;SDS011;920;48.944;9.148;2022-09-21T08:01:12;8.30;;;5.30;;
1839;SDS011;920;48.944;9.148;2022-09-21T08:03:38;7.53;;;6.00;;
1839;SDS011;920;48.944;9.148;2022-09-21T08:06:06;6.57;;;5.23;;
1839;SDS011;920;48.944;9.148;2022-09-21T08:08:34;7.87;;;5.40;;
1839;SDS011;920;48.944;9.148;2022-09-21T08:11:01;7.87;;;5.23;;
1839;SDS011;920;48.944;9.148;2022-09-21T08:13:29;6.00;;;5.17;;
1839;SDS011;920;48.944;9.148;2022-09-21T08:15:56;5.10;;;4.07;;
1839;SDS011;920;48.944;9.148;2022-09-21T08:18:23;6.30;;;4.90;;
1839;SDS011;920;48.944;9.148;2022-09-21T08:20:52;6.33;;;4.70;;
1839;SDS011;920;48.944;9.148;2022-09-21T08:23:20;5.40;;;4.60;;
1839;SDS011;920;48.944;9.148;2022-09-21T08:25:47;6.33;;;4.33;;
1839;SDS011;920;48.944;9.148;2022-09-21T08:28:14;5.53;;;4.73;;
1839;SDS011;920;48.944;9.148;2022-09-21T08:30:42;8.43;;;5.37;;
1839;SDS011;920;48.944;9.148;2022-09-21T08:33:09;6.63;;;5.20;;
1839;SDS011;920;48.944;9.148;2022-09-21T08:35:36;8.30;;;4.77;;
1839;SDS011;920;48.944;9.148;2022-09-21T08:38:02;5.90;;;5.30;;
1839;SDS011;920;48.944;9.148;2022-09-21T08:40:31;5.87;;;5.17;;
1839;SDS011;920;48.944;9.148;2022-09-21T08:42:58;6.00;;;4.83;;
1839;SDS011;920;48.944;9.148;2022-09-21T08:45:29;7.00;;;5.53;;
1839;SDS011;920;48.944;9.148;2022-09-21T08:48:00;6.27;;;4.90;;
1839;SDS011;920;48.944;9.148;2022-09-21T08:50:30;7.63;;;4.97;;
1839;SDS011;920;48.944;9.148;2022-09-21T08:53:00;5.97;;;5.20;;
1839;SDS011;920;48.944;9.148;2022-09-21T08:55:31;7.47;;;6.00;;
1839;SDS011;920;48.944;9.148;2022-09-21T08:57:58;7.57;;;5.33;;
1839;SDS011;920;48.944;9.148;2022-09-21T09:00:25;5.43;;;4.83;;
1839;SDS011;920;48.944;9.148;2022-09-21T09:05:44;4.67;;;3.80;;
1839;SDS011;920;48.944;9.148;2022-09-21T09:11:23;4.17;;;3.53;;
1839;SDS011;920;48.944;9.148;2022-09-21T09:13:59;6.13;;;3.40;;
1839;SDS011;920;48.944;9.148;2022-09-21T09:16:47;5.23;;;3.03;;
1839;SDS011;920;48.944;9.148;2022-09-21T09:19:19;4.70;;;3.67;;
1839;SDS011;920;48.944;9.148;2022-09-21T09:21:49;4.30;;;3.20;;
1839;SDS011;920;48.944;9.148;2022-09-21T09:24:17;4.40;;;3.47;;
1839;SDS011;920;48.944;9.148;2022-09-21T09:26:58;4.33;;;3.20;;
1839;SDS011;920;48.944;9.148;2022-09-21T09:29:28;3.80;;;3.20;;
1839;SDS011;920;48.944;9.148;2022-09-21T09:31:57;5.03;;;3.40;;
1839;SDS011;920;48.944;9.148;2022-09-21T09:34:27;4.43;;;3.27;;
1839;SDS011;920;48.944;9.148;2022-09-21T09:36:56;4.33;;;3.23;;
1839;SDS011;920;48.944;9.148;2022-09-21T09:39:25;4.33;;;3.17;;
1839;SDS011;920;48.944;9.148;2022-09-21T09:42:05;3.93;;;3.00;;
1839;SDS011;920;48.944;9.148;2022-09-21T09:44:48;5.20;;;2.83;;
1839;SDS011;920;48.944;9.148;2022-09-21T09:47:25;4.00;;;2.50;;
1839;SDS011;920;48.944;9.148;2022-09-21T09:50:03;3.30;;;2.57;;
1839;SDS011;920;48.944;9.148;2022-09-21T09:52:31;3.43;;;2.57;;
1839;SDS011;920;48.944;9.148;2022-09-21T09:54:58;3.43;;;1.90;;
1839;SDS011;920;48.944;9.148;2022-09-21T09:57:28;3.23;;;2.00;;
1839;SDS011;920;48.944;9.148;2022-09-21T09:59:57;3.30;;;2.43;;
1839;SDS011;920;48.944;9.148;2022-09-21T10:02:25;3.77;;;2.13;;
1839;SDS011;920;48.944;9.148;2022-09-21T10:04:54;2.87;;;1.83;;
1839;SDS011;920;48.944;9.148;2022-09-21T10:07:33;2.67;;;2.13;;
1839;SDS011;920;48.944;9.148;2022-09-21T10:10:01;3.13;;;2.00;;
1839;SDS011;920;48.944;9.148;2022-09-21T10:12:29;3.10;;;2.10;;
1839;SDS011;920;48.944;9.148;2022-09-21T10:14:56;2.90;;;1.90;;
1839;SDS011;920;48.944;9.148;2022-09-21T10:17:24;3.67;;;2.23;;
1839;SDS011;920;48.944;9.148;2022-09-21T10:19:57;5.50;;;2.00;;
1839;SDS011;920;48.944;9.148;2022-09-21T10:22:25;3.03;;;2.13;;
1839;SDS011;920;48.944;9.148;2022-09-21T10:24:53;3.13;;;2.00;;
1839;SDS011;920;48.944;9.148;2022-09-21T10:27:24;3.90;;;2.40;;
1839;SDS011;920;48.944;9.148;2022-09-21T10:29:53;3.40;;;2.00;;
1839;SDS011;920;48.944;9.148;2022-09-21T10:32:21;2.67;;;1.97;;
1839;SDS011;920;48.944;9.148;2022-09-21T10:35:00;3.30;;;2.10;;
1839;SDS011;920;48.944;9.148;2022-09-21T10:37:38;3.03;;;2.07;;
1839;SDS011;920;48.944;9.148;2022-09-21T10:40:10;3.63;;;2.20;;
1839;SDS011;920;48.944;9.148;2022-09-21T10:42:50;4.43;;;1.90;;
1839;SDS011;920;48.944;9.148;2022-09-21T10:45:22;3.27;;;2.00;;
1839;SDS011;920;48.944;9.148;2022-09-21T10:47:50;2.83;;;1.80;;
1839;SDS011;920;48.944;9.148;2022-09-21T10:50:20;2.93;;;1.87;;
1839;SDS011;920;48.944;9.148;2022-09-21T10:52:49;1.80;;;1.37;;
1839;SDS011;920;48.944;9.148;2022-09-21T10:55:17;3.47;;;2.20;;
1839;SDS011;920;48.944;9.148;2022-09-21T10:57:45;4.13;;;2.10;;
1839;SDS011;920;48.944;9.148;2022-09-21T11:00:27;5.27;;;2.00;;
1839;SDS011;920;48.944;9.148;2022-09-21T11:02:59;5.30;;;2.30;;
1839;SDS011;920;48.944;9.148;2022-09-21T11:05:30;3.90;;;2.80;;
1839;SDS011;920;48.944;9.148;2022-09-21T11:08:00;2.87;;;2.07;;
1839;SDS011;920;48.944;9.148;2022-09-21T11:10:32;3.00;;;2.00;;
1839;SDS011;920;48.944;9.148;2022-09-21T11:13:04;3.40;;;1.77;;
1839;SDS011;920;48.944;9.148;2022-09-21T11:15:45;7.27;;;1.90;;
1839;SDS011;920;48.944;9.148;2022-09-21T11:18:18;2.20;;;1.40;;
1839;SDS011;920;48.944;9.148;2022-09-21T11:20:47;2.50;;;2.00;;
1839;SDS011;920;48.944;9.148;2022-09-21T11:23:20;2.27;;;1.70;;
1839;SDS011;920;48.944;9.148;2022-09-21T11:25:54;2.20;;;1.33;;
1839;SDS011;920;48.944;9.148;2022-09-21T11:28:25;2.30;;;1.43;;
1839;SDS011;920;48.944;9.148;2022-09-21T11:31:08;2.30;;;1.10;;
1839;SDS011;920;48.944;9.148;2022-09-21T11:33:44;1.60;;;1.10;;
1839;SDS011;920;48.944;9.148;2022-09-21T11:36:20;2.33;;;1.30;;
1839;SDS011;920;48.944;9.148;2022-09-21T11:38:55;3.23;;;1.40;;
1839;SDS011;920;48.944;9.148;2022-09-21T11:41:29;2.30;;;0.90;;
1839;SDS011;920;48.944;9.148;2022-09-21T11:44:08;2.10;;;1.50;;
1839;SDS011;920;48.944;9.148;2022-09-21T11:46:44;4.70;;;1.13;;
1839;SDS011;920;48.944;9.148;2022-09-21T11:49:27;2.70;;;1.50;;
1839;SDS011;920;48.944;9.148;2022-09-21T11:52:05;1.90;;;1.10;;
1839;SDS011;920;48.944;9.148;2022-09-21T11:54:55;2.23;;;1.07;;
1839;SDS011;920;48.944;9.148;2022-09-21T11:57:49;2.30;;;1.20;;
1839;SDS011;920;48.944;9.148;2022-09-21T12:00:19;2.03;;;0.97;;
1839;SDS011;920;48.944;9.148;2022-09-21T12:08:47;2.53;;;1.00;;
1839;SDS011;920;48.944;9.148;2022-09-21T12:11:27;1.40;;;0.70;;
1839;SDS011;920;48.944;9.148;2022-09-21T12:13:59;3.10;;;1.00;;
1839;SDS011;920;48.944;9.148;2022-09-21T12:16:31;1.53;;;0.70;;
1839;SDS011;920;48.944;9.148;2022-09-21T12:19:08;2.20;;;1.00;;
1839;SDS011;920;48.944;9.148;2022-09-21T12:21:41;1.57;;;0.90;;
1839;SDS011;920;48.944;9.148;2022-09-21T12:24:12;1.40;;;0.80;;
1839;SDS011;920;48.944;9.148;2022-09-21T12:26:40;1.70;;;0.97;;
1839;SDS011;920;48.944;9.148;2022-09-21T12:29:10;2.70;;;1.00;;
1839;SDS011;920;48.944;9.148;2022-09-21T12:31:41;2.00;;;0.80;;
1839;SDS011;920;48.944;9.148;2022-09-21T12:34:23;1.50;;;0.77;;
1839;SDS011;920;48.944;9.148;2022-09-21T12:36:57;2.60;;;0.80;;
1839;SDS011;920;48.944;9.148;2022-09-21T12:39:26;2.43;;;0.80;;
1839;SDS011;920;48.944;9.148;2022-09-21T12:41:56;1.90;;;0.80;;
1839;SDS011;920;48.944;9.148;2022-09-21T12:44:29;2.07;;;0.80;;
1839;SDS011;920;48.944;9.148;2022-09-21T12:46:59;1.60;;;0.90;;
1839;SDS011;920;48.944;9.148;2022-09-21T12:49:35;2.13;;;0.90;;
1839;SDS011;920;48.944;9.148;2022-09-21T12:52:05;1.60;;;0.80;;
1839;SDS011;920;48.944;9.148;2022-09-21T12:54:34;2.17;;;0.87;;
1839;SDS011;920;48.944;9.148;2022-09-21T12:57:14;1.50;;;0.80;;
1839;SDS011;920;48.944;9.148;2022-09-21T12:59:48;1.50;;;0.80;;
1839;SDS011;920;48.944;9.148;2022-09-21T13:02:18;2.30;;;1.00;;
1839;SDS011;920;48.944;9.148;2022-09-21T13:04:56;1.33;;;0.70;;
1839;SDS011;920;48.944;9.148;2022-09-21T13:07:44;2.40;;;0.90;;
1839;SDS011;920;48.944;9.148;2022-09-21T13:10:22;1.30;;;0.70;;
1839;SDS011;920;48.944;9.148;2022-09-21T13:13:03;1.40;;;0.87;;
1839;SDS011;920;48.944;9.148;2022-09-21T13:15:39;1.60;;;0.80;;
1839;SDS011;920;48.944;9.148;2022-09-21T13:18:14;1.90;;;0.80;;
1839;SDS011;920;48.944;9.148;2022-09-21T13:20:44;1.60;;;0.97;;
1839;SDS011;920;48.944;9.148;2022-09-21T13:23:13;2.07;;;0.80;;
1839;SDS011;920;48.944;9.148;2022-09-21T13:25:41;1.93;;;1.00;;
1839;SDS011;920;48.944;9.148;2022-09-21T13:28:17;3.10;;;0.90;;
1839;SDS011;920;48.944;9.148;2022-09-21T13:30:48;2.17;;;0.83;;
1839;SDS011;920;48.944;9.148;2022-09-21T13:33:29;1.70;;;1.00;;
1839;SDS011;920;48.944;9.148;2022-09-21T13:36:02;1.50;;;0.80;;
1839;SDS011;920;48.944;9.148;2022-09-21T13:38:53;1.60;;;0.90;;
1839;SDS011;920;48.944;9.148;2022-09-21T13:41:23;2.80;;;1.00;;
1839;SDS011;920;48.944;9.148;2022-09-21T13:44:01;1.60;;;0.80;;
1839;SDS011;920;48.944;9.148;2022-09-21T13:49:32;1.50;;;0.93;;
1839;SDS011;920;48.944;9.148;2022-09-21T13:52:06;2.67;;;1.00;;
1839;SDS011;920;48.944;9.148;2022-09-21T13:54:44;1.77;;;0.90;;
1839;SDS011;920;48.944;9.148;2022-09-21T13:57:15;2.30;;;1.10;;
1839;SDS011;920;48.944;9.148;2022-09-21T13:59:44;1.97;;;0.90;;
1839;SDS011;920;48.944;9.148;2022-09-21T14:02:24;1.60;;;1.00;;
1839;SDS011;920;48.944;9.148;2022-09-21T14:04:57;1.70;;;1.00;;
1839;SDS011;920;48.944;9.148;2022-09-21T14:07:29;1.50;;;0.80;;
1839;SDS011;920;48.944;9.148;2022-09-21T14:09:56;2.20;;;1.00;;
1839;SDS011;920;48.944;9.148;2022-09-21T14:12:25;1.60;;;0.90;;
1839;SDS011;920;48.944;9.148;2022-09-21T14:21:14;2.00;;;0.80;;
1839;SDS011;920;48.944;9.148;2022-09-21T14:26:48;1.90;;;1.00;;
1839;SDS011;920;48.944;9.148;2022-09-21T14:29:20;1.90;;;0.90;;
1839;SDS011;920;48.944;9.148;2022-09-21T14:31:49;2.10;;;1.10;;
1839;SDS011;920;48.944;9.148;2022-09-21T14:34:18;1.80;;;0.90;;
1839;SDS011;920;48.944;9.148;2022-09-21T14:36:47;1.77;;;0.90;;
1839;SDS011;920;48.944;9.148;2022-09-21T14:39:18;2.60;;;1.10;;
1839;SDS011;920;48.944;9.148;2022-09-21T14:41:46;1.53;;;1.10;;
1839;SDS011;920;48.944;9.148;2022-09-21T14:44:17;1.90;;;0.90;;
1839;SDS011;920;48.944;9.148;2022-09-21T14:46:49;1.80;;;1.17;;
1839;SDS011;920;48.944;9.148;2022-09-21T14:49:34;1.40;;;0.83;;
1839;SDS011;920;48.944;9.148;2022-09-21T14:52:09;1.80;;;0.90;;
1839;SDS011;920;48.944;9.148;2022-09-21T14:54:45;2.07;;;1.30;;
1839;SDS011;920;48.944;9.148;2022-09-21T14:57:23;2.20;;;1.03;;
1839;SDS011;920;48.944;9.148;2022-09-21T15:00:15;1.73;;;1.00;;
1839;SDS011;920;48.944;9.148;2022-09-21T15:02:48;1.80;;;0.90;;
1839;SDS011;920;48.944;9.148;2022-09-21T15:05:26;1.90;;;1.03;;
1839;SDS011;920;48.944;9.148;2022-09-21T15:08:03;2.70;;;1.53;;
1839;SDS011;920;48.944;9.148;2022-09-21T15:10:56;1.93;;;0.93;;
1839;SDS011;920;48.944;9.148;2022-09-21T15:13:36;1.63;;;0.80;;
1839;SDS011;920;48.944;9.148;2022-09-21T15:16:13;1.50;;;0.90;;
1839;SDS011;920;48.944;9.148;2022-09-21T15:18:45;3.20;;;1.00;;
1839;SDS011;920;48.944;9.148;2022-09-21T15:21:19;11.37;;;8.57;;
1839;SDS011;920;48.944;9.148;2022-09-21T15:23:48;9.00;;;8.10;;
1839;SDS011;920;48.944;9.148;2022-09-21T15:26:19;6.23;;;4.40;;
1839;SDS011;920;48.944;9.148;2022-09-21T15:28:48;5.30;;;4.80;;
1839;SDS011;920;48.944;9.148;2022-09-21T15:31:18;6.43;;;5.83;;
1839;SDS011;920;48.944;9.148;2022-09-21T15:33:45;3.70;;;2.90;;
1839;SDS011;920;48.944;9.148;2022-09-21T15:36:17;3.60;;;2.33;;
1839;SDS011;920;48.944;9.148;2022-09-21T15:38:46;2.37;;;1.40;;
1839;SDS011;920;48.944;9.148;2022-09-21T15:41:17;1.93;;;1.27;;
1839;SDS011;920;48.944;9.148;2022-09-21T15:44:05;2.03;;;1.40;;
1839;SDS011;920;48.944;9.148;2022-09-21T15:46:37;1.90;;;1.17;;
1839;SDS011;920;48.944;9.148;2022-09-21T15:49:08;6.93;;;5.67;;
1839;SDS011;920;48.944;9.148;2022-09-21T15:51:37;2.30;;;1.50;;
1839;SDS011;920;48.944;9.148;2022-09-21T15:54:12;10.10;;;7.60;;
1839;SDS011;920;48.944;9.148;2022-09-21T15:56:47;3.70;;;2.57;;
1839;SDS011;920;48.944;9.148;2022-09-21T15:59:14;18.70;;;14.37;;
1839;SDS011;920;48.944;9.148;2022-09-21T16:01:46;12.77;;;9.60;;
1839;SDS011;920;48.944;9.148;2022-09-21T16:04:15;7.00;;;5.10;;
1839;SDS011;920;48.944;9.148;2022-09-21T16:06:44;7.73;;;4.60;;
1839;SDS011;920;48.944;9.148;2022-09-21T16:09:28;2.80;;;1.90;;
1839;SDS011;920;48.944;9.148;2022-09-21T16:14:55;4.63;;;3.27;;
1839;SDS011;920;48.944;9.148;2022-09-21T16:17:24;3.40;;;2.60;;
1839;SDS011;920;48.944;9.148;2022-09-21T16:20:05;2.20;;;1.47;;